sensor_id;sensor_type;location;lat;lon;timestamp;P1;durP1;ratioP1;P2;durP2;ratioP2
2860;SDS011;1438;50.922;6.704;2023-12-14T00:01:15;57.63;;;28.88;;
2860;SDS011;1438;50.922;6.704;2023-12-14T00:03:41;69.45;;;30.10;;
2860;SDS011;1438;50.922;6.704;2023-12-14T00:06:09;69.70;;;31.35;;
2860;SDS011;1438;50.922;6.704;2023-12-14T00:08:35;80.38;;;32.10;;
2860;SDS011;1438;50.922;6.704;2023-12-14T00:11:08;64.40;;;29.58;;
2860;SDS011;1438;50.922;6.704;2023-12-14T00:13:34;67.65;;;31.58;;
2860;SDS011;1438;50.922;6.704;2023-12-14T00:16:00;75.03;;;32.42;;
2860;SDS011;1438;50.922;6.704;2023-12-14T00:18:26;66.50;;;31.08;;
2860;SDS011;1438;50.922;6.704;2023-12-14T00:20:52;63.35;;;29.85;;
2860;SDS011;1438;50.922;6.704;2023-12-14T00:23:22;78.10;;;32.72;;
2860;SDS011;1438;50.922;6.704;2023-12-14T00:25:48;69.57;;;31.98;;
2860;SDS011;1438;50.922;6.704;2023-12-14T00:28:14;62.53;;;31.38;;
2860;SDS011;1438;50.922;6.704;2023-12-14T00:30:40;74.63;;;31.57;;
2860;SDS011;1438;50.922;6.704;2023-12-14T00:33:06;68.33;;;31.33;;
2860;SDS011;1438;50.922;6.704;2023-12-14T00:35:32;67.43;;;29.57;;
2860;SDS011;1438;50.922;6.704;2023-12-14T00:37:58;69.10;;;30.50;;
2860;SDS011;1438;50.922;6.704;2023-12-14T00:40:24;63.97;;;30.27;;
2860;SDS011;1438;50.922;6.704;2023-12-14T00:42:50;67.68;;;31.67;;
2860;SDS011;1438;50.922;6.704;2023-12-14T00:45:16;74.20;;;33.08;;
2860;SDS011;1438;50.922;6.704;2023-12-14T00:47:42;68.60;;;30.02;;
2860;SDS011;1438;50.922;6.704;2023-12-14T00:50:08;74.13;;;32.67;;
2860;SDS011;1438;50.922;6.704;2023-12-14T00:52:34;80.38;;;34.33;;
2860;SDS011;1438;50.922;6.704;2023-12-14T00:55:00;74.20;;;32.27;;
2860;SDS011;1438;50.922;6.704;2023-12-14T00:57:26;64.23;;;30.20;;
2860;SDS011;1438;50.922;6.704;2023-12-14T00:59:52;81.73;;;32.97;;
2860;SDS011;1438;50.922;6.704;2023-12-14T01:02:18;76.47;;;35.38;;
2860;SDS011;1438;50.922;6.704;2023-12-14T01:04:44;69.50;;;32.00;;
2860;SDS011;1438;50.922;6.704;2023-12-14T01:07:10;79.40;;;34.58;;
2860;SDS011;1438;50.922;6.704;2023-12-14T01:09:36;68.67;;;32.53;;
2860;SDS011;1438;50.922;6.704;2023-12-14T01:12:02;77.13;;;34.77;;
2860;SDS011;1438;50.922;6.704;2023-12-14T01:14:28;80.28;;;33.63;;
2860;SDS011;1438;50.922;6.704;2023-12-14T01:16:54;78.73;;;34.77;;
2860;SDS011;1438;50.922;6.704;2023-12-14T01:19:20;86.28;;;34.92;;
2860;SDS011;1438;50.922;6.704;2023-12-14T01:21:46;82.40;;;32.70;;
2860;SDS011;1438;50.922;6.704;2023-12-14T01:24:12;69.80;;;33.10;;
2860;SDS011;1438;50.922;6.704;2023-12-14T01:26:39;72.22;;;33.60;;
2860;SDS011;1438;50.922;6.704;2023-12-14T01:29:05;81.37;;;36.13;;
2860;SDS011;1438;50.922;6.704;2023-12-14T01:31:31;73.93;;;31.60;;
2860;SDS011;1438;50.922;6.704;2023-12-14T01:33:57;84.97;;;32.83;;
2860;SDS011;1438;50.922;6.704;2023-12-14T01:36:23;76.47;;;33.80;;
2860;SDS011;1438;50.922;6.704;2023-12-14T01:38:52;79.82;;;31.67;;
2860;SDS011;1438;50.922;6.704;2023-12-14T01:41:18;80.35;;;31.50;;
2860;SDS011;1438;50.922;6.704;2023-12-14T01:43:44;84.82;;;32.83;;
2860;SDS011;1438;50.922;6.704;2023-12-14T01:46:11;84.85;;;33.95;;
2860;SDS011;1438;50.922;6.704;2023-12-14T01:48:37;84.90;;;34.85;;
2860;SDS011;1438;50.922;6.704;2023-12-14T01:51:04;75.63;;;32.22;;
2860;SDS011;1438;50.922;6.704;2023-12-14T01:53:30;86.70;;;34.25;;
2860;SDS011;1438;50.922;6.704;2023-12-14T01:55:56;82.80;;;35.03;;
2860;SDS011;1438;50.922;6.704;2023-12-14T01:58:22;81.38;;;34.95;;
2860;SDS011;1438;50.922;6.704;2023-12-14T02:01:01;82.63;;;33.83;;
2860;SDS011;1438;50.922;6.704;2023-12-14T02:03:29;83.68;;;35.70;;
2860;SDS011;1438;50.922;6.704;2023-12-14T02:05:55;100.28;;;36.70;;
2860;SDS011;1438;50.922;6.704;2023-12-14T02:08:23;111.10;;;42.65;;
2860;SDS011;1438;50.922;6.704;2023-12-14T02:10:49;113.53;;;40.83;;
2860;SDS011;1438;50.922;6.704;2023-12-14T02:13:15;115.28;;;43.40;;
2860;SDS011;1438;50.922;6.704;2023-12-14T02:15:41;110.15;;;39.75;;
2860;SDS011;1438;50.922;6.704;2023-12-14T02:18:10;115.05;;;41.30;;
2860;SDS011;1438;50.922;6.704;2023-12-14T02:20:36;108.13;;;38.42;;
2860;SDS011;1438;50.922;6.704;2023-12-14T02:23:02;105.67;;;40.43;;
2860;SDS011;1438;50.922;6.704;2023-12-14T02:25:28;101.53;;;37.47;;
2860;SDS011;1438;50.922;6.704;2023-12-14T02:27:54;96.65;;;37.15;;
2860;SDS011;1438;50.922;6.704;2023-12-14T02:30:20;91.40;;;34.70;;
2860;SDS011;1438;50.922;6.704;2023-12-14T02:32:46;88.00;;;33.80;;
2860;SDS011;1438;50.922;6.704;2023-12-14T02:35:12;87.23;;;32.97;;
2860;SDS011;1438;50.922;6.704;2023-12-14T02:37:38;87.38;;;31.70;;
2860;SDS011;1438;50.922;6.704;2023-12-14T02:40:07;75.97;;;30.95;;
2860;SDS011;1438;50.922;6.704;2023-12-14T02:42:34;73.45;;;29.95;;
2860;SDS011;1438;50.922;6.704;2023-12-14T02:45:00;84.27;;;32.37;;
2860;SDS011;1438;50.922;6.704;2023-12-14T02:47:27;87.45;;;30.55;;
2860;SDS011;1438;50.922;6.704;2023-12-14T02:49:53;81.38;;;32.85;;
2860;SDS011;1438;50.922;6.704;2023-12-14T02:52:19;87.50;;;32.00;;
2860;SDS011;1438;50.922;6.704;2023-12-14T02:54:45;93.07;;;32.67;;
2860;SDS011;1438;50.922;6.704;2023-12-14T02:57:11;65.80;;;25.47;;
2860;SDS011;1438;50.922;6.704;2023-12-14T02:59:37;86.17;;;30.83;;
2860;SDS011;1438;50.922;6.704;2023-12-14T03:02:03;96.07;;;34.17;;
2860;SDS011;1438;50.922;6.704;2023-12-14T03:04:29;83.10;;;29.67;;
2860;SDS011;1438;50.922;6.704;2023-12-14T03:06:55;78.82;;;29.55;;
2860;SDS011;1438;50.922;6.704;2023-12-14T03:09:21;75.30;;;31.30;;
2860;SDS011;1438;50.922;6.704;2023-12-14T03:11:48;77.53;;;28.30;;
2860;SDS011;1438;50.922;6.704;2023-12-14T03:14:14;78.88;;;28.42;;
2860;SDS011;1438;50.922;6.704;2023-12-14T03:16:40;77.28;;;30.45;;
2860;SDS011;1438;50.922;6.704;2023-12-14T03:19:06;80.30;;;28.43;;
2860;SDS011;1438;50.922;6.704;2023-12-14T03:21:31;72.43;;;27.87;;
2860;SDS011;1438;50.922;6.704;2023-12-14T03:23:57;77.90;;;29.20;;
2860;SDS011;1438;50.922;6.704;2023-12-14T03:26:23;93.80;;;31.80;;
2860;SDS011;1438;50.922;6.704;2023-12-14T03:28:49;78.60;;;28.08;;
2860;SDS011;1438;50.922;6.704;2023-12-14T03:31:15;83.40;;;28.57;;
2860;SDS011;1438;50.922;6.704;2023-12-14T03:33:42;92.00;;;32.47;;
2860;SDS011;1438;50.922;6.704;2023-12-14T03:36:08;76.28;;;29.35;;
2860;SDS011;1438;50.922;6.704;2023-12-14T03:38:34;79.83;;;31.00;;
2860;SDS011;1438;50.922;6.704;2023-12-14T03:41:00;77.93;;;30.73;;
2860;SDS011;1438;50.922;6.704;2023-12-14T03:43:26;76.60;;;30.87;;
2860;SDS011;1438;50.922;6.704;2023-12-14T03:45:52;79.38;;;30.90;;
2860;SDS011;1438;50.922;6.704;2023-12-14T03:48:18;80.40;;;27.05;;
2860;SDS011;1438;50.922;6.704;2023-12-14T03:50:44;67.03;;;24.77;;
2860;SDS011;1438;50.922;6.704;2023-12-14T03:53:10;71.20;;;25.80;;
2860;SDS011;1438;50.922;6.704;2023-12-14T03:55:36;57.30;;;24.10;;
2860;SDS011;1438;50.922;6.704;2023-12-14T03:58:02;61.57;;;25.70;;
2860;SDS011;1438;50.922;6.704;2023-12-14T04:00:28;51.93;;;22.50;;
2860;SDS011;1438;50.922;6.704;2023-12-14T04:02:54;62.50;;;26.13;;
2860;SDS011;1438;50.922;6.704;2023-12-14T04:05:20;64.23;;;25.23;;
2860;SDS011;1438;50.922;6.704;2023-12-14T04:07:46;70.68;;;28.67;;
2860;SDS011;1438;50.922;6.704;2023-12-14T04:10:12;71.63;;;28.70;;
2860;SDS011;1438;50.922;6.704;2023-12-14T04:12:39;77.15;;;28.13;;
2860;SDS011;1438;50.922;6.704;2023-12-14T04:15:05;61.67;;;25.08;;
2860;SDS011;1438;50.922;6.704;2023-12-14T04:17:32;67.90;;;25.48;;
2860;SDS011;1438;50.922;6.704;2023-12-14T04:19:58;73.03;;;27.33;;
2860;SDS011;1438;50.922;6.704;2023-12-14T04:22:25;78.65;;;25.42;;
2860;SDS011;1438;50.922;6.704;2023-12-14T04:24:51;77.20;;;27.80;;
2860;SDS011;1438;50.922;6.704;2023-12-14T04:27:18;78.25;;;28.73;;
2860;SDS011;1438;50.922;6.704;2023-12-14T04:29:44;75.80;;;26.85;;
2860;SDS011;1438;50.922;6.704;2023-12-14T04:32:10;66.73;;;25.90;;
2860;SDS011;1438;50.922;6.704;2023-12-14T04:34:36;66.63;;;23.63;;
2860;SDS011;1438;50.922;6.704;2023-12-14T04:37:02;66.30;;;25.60;;
2860;SDS011;1438;50.922;6.704;2023-12-14T04:39:28;62.38;;;25.38;;
2860;SDS011;1438;50.922;6.704;2023-12-14T04:41:54;74.18;;;26.35;;
2860;SDS011;1438;50.922;6.704;2023-12-14T04:44:20;77.53;;;28.30;;
2860;SDS011;1438;50.922;6.704;2023-12-14T04:46:47;69.07;;;26.92;;
2860;SDS011;1438;50.922;6.704;2023-12-14T04:49:12;72.28;;;28.90;;
2860;SDS011;1438;50.922;6.704;2023-12-14T04:51:38;75.95;;;30.52;;
2860;SDS011;1438;50.922;6.704;2023-12-14T04:54:04;85.40;;;29.90;;
2860;SDS011;1438;50.922;6.704;2023-12-14T04:56:30;94.80;;;28.70;;
2860;SDS011;1438;50.922;6.704;2023-12-14T04:58:56;98.30;;;32.47;;
2860;SDS011;1438;50.922;6.704;2023-12-14T05:01:23;81.72;;;32.08;;
2860;SDS011;1438;50.922;6.704;2023-12-14T05:03:51;79.85;;;30.08;;
2860;SDS011;1438;50.922;6.704;2023-12-14T05:06:17;91.70;;;30.92;;
2860;SDS011;1438;50.922;6.704;2023-12-14T05:08:43;77.67;;;30.60;;
2860;SDS011;1438;50.922;6.704;2023-12-14T05:11:09;91.00;;;32.75;;
2860;SDS011;1438;50.922;6.704;2023-12-14T05:13:35;90.70;;;32.67;;
2860;SDS011;1438;50.922;6.704;2023-12-14T05:16:01;84.33;;;31.50;;
2860;SDS011;1438;50.922;6.704;2023-12-14T05:18:27;84.32;;;32.20;;
2860;SDS011;1438;50.922;6.704;2023-12-14T05:20:53;90.43;;;32.00;;
2860;SDS011;1438;50.922;6.704;2023-12-14T05:23:19;86.50;;;33.10;;
2860;SDS011;1438;50.922;6.704;2023-12-14T05:25:45;78.70;;;28.53;;
2860;SDS011;1438;50.922;6.704;2023-12-14T05:28:11;66.17;;;27.40;;
2860;SDS011;1438;50.922;6.704;2023-12-14T05:30:37;70.50;;;26.50;;
2860;SDS011;1438;50.922;6.704;2023-12-14T05:33:03;68.47;;;27.40;;
2860;SDS011;1438;50.922;6.704;2023-12-14T05:35:29;71.50;;;25.83;;
2860;SDS011;1438;50.922;6.704;2023-12-14T05:37:55;71.28;;;28.88;;
2860;SDS011;1438;50.922;6.704;2023-12-14T05:40:21;71.63;;;28.13;;
2860;SDS011;1438;50.922;6.704;2023-12-14T05:42:47;67.70;;;27.83;;
2860;SDS011;1438;50.922;6.704;2023-12-14T05:45:13;69.03;;;27.20;;
2860;SDS011;1438;50.922;6.704;2023-12-14T05:47:39;65.67;;;26.67;;
2860;SDS011;1438;50.922;6.704;2023-12-14T05:50:06;76.07;;;26.88;;
2860;SDS011;1438;50.922;6.704;2023-12-14T05:52:34;72.95;;;28.20;;
2860;SDS011;1438;50.922;6.704;2023-12-14T05:55:00;76.57;;;25.98;;
2860;SDS011;1438;50.922;6.704;2023-12-14T05:57:26;78.53;;;29.70;;
2860;SDS011;1438;50.922;6.704;2023-12-14T05:59:52;66.57;;;27.47;;
2860;SDS011;1438;50.922;6.704;2023-12-14T06:02:18;70.53;;;24.08;;
2860;SDS011;1438;50.922;6.704;2023-12-14T06:04:44;57.07;;;23.67;;
2860;SDS011;1438;50.922;6.704;2023-12-14T06:07:10;69.23;;;24.77;;
2860;SDS011;1438;50.922;6.704;2023-12-14T06:09:36;80.90;;;27.67;;
2860;SDS011;1438;50.922;6.704;2023-12-14T06:12:03;70.97;;;26.40;;
2860;SDS011;1438;50.922;6.704;2023-12-14T06:14:29;60.28;;;22.10;;
2860;SDS011;1438;50.922;6.704;2023-12-14T06:16:55;68.10;;;24.17;;
2860;SDS011;1438;50.922;6.704;2023-12-14T06:19:21;68.47;;;25.57;;
2860;SDS011;1438;50.922;6.704;2023-12-14T06:21:47;67.55;;;21.45;;
2860;SDS011;1438;50.922;6.704;2023-12-14T06:24:13;71.95;;;24.80;;
2860;SDS011;1438;50.922;6.704;2023-12-14T06:26:46;66.03;;;23.40;;
2860;SDS011;1438;50.922;6.704;2023-12-14T06:29:12;64.78;;;24.58;;
2860;SDS011;1438;50.922;6.704;2023-12-14T06:31:38;46.75;;;19.35;;
2860;SDS011;1438;50.922;6.704;2023-12-14T06:34:05;69.85;;;24.77;;
2860;SDS011;1438;50.922;6.704;2023-12-14T06:36:31;66.18;;;24.10;;
2860;SDS011;1438;50.922;6.704;2023-12-14T06:38:57;68.95;;;25.10;;
2860;SDS011;1438;50.922;6.704;2023-12-14T06:41:24;70.25;;;25.45;;
2860;SDS011;1438;50.922;6.704;2023-12-14T06:43:50;68.68;;;25.42;;
2860;SDS011;1438;50.922;6.704;2023-12-14T06:46:17;78.93;;;24.95;;
2860;SDS011;1438;50.922;6.704;2023-12-14T06:48:43;79.40;;;27.38;;
2860;SDS011;1438;50.922;6.704;2023-12-14T06:51:09;68.25;;;23.98;;
2860;SDS011;1438;50.922;6.704;2023-12-14T06:53:35;74.60;;;25.20;;
2860;SDS011;1438;50.922;6.704;2023-12-14T06:56:05;70.60;;;22.85;;
2860;SDS011;1438;50.922;6.704;2023-12-14T06:58:34;74.57;;;25.55;;
2860;SDS011;1438;50.922;6.704;2023-12-14T07:01:00;80.23;;;25.87;;
2860;SDS011;1438;50.922;6.704;2023-12-14T07:03:26;77.55;;;26.48;;
2860;SDS011;1438;50.922;6.704;2023-12-14T07:05:52;68.77;;;24.67;;
2860;SDS011;1438;50.922;6.704;2023-12-14T07:08:18;76.20;;;26.23;;
2860;SDS011;1438;50.922;6.704;2023-12-14T07:10:44;67.82;;;24.23;;
2860;SDS011;1438;50.922;6.704;2023-12-14T07:13:10;78.40;;;26.27;;
2860;SDS011;1438;50.922;6.704;2023-12-14T07:15:36;69.73;;;23.93;;
2860;SDS011;1438;50.922;6.704;2023-12-14T07:18:02;71.22;;;25.55;;
2860;SDS011;1438;50.922;6.704;2023-12-14T07:20:28;78.20;;;26.65;;
2860;SDS011;1438;50.922;6.704;2023-12-14T07:22:54;73.63;;;23.30;;
2860;SDS011;1438;50.922;6.704;2023-12-14T07:25:20;73.87;;;23.53;;
2860;SDS011;1438;50.922;6.704;2023-12-14T07:27:46;72.43;;;21.60;;
2860;SDS011;1438;50.922;6.704;2023-12-14T07:30:12;64.43;;;25.27;;
2860;SDS011;1438;50.922;6.704;2023-12-14T07:32:38;66.88;;;24.70;;
2860;SDS011;1438;50.922;6.704;2023-12-14T07:35:04;70.30;;;23.98;;
2860;SDS011;1438;50.922;6.704;2023-12-14T07:37:30;65.43;;;22.48;;
2860;SDS011;1438;50.922;6.704;2023-12-14T07:39:56;68.40;;;23.43;;
2860;SDS011;1438;50.922;6.704;2023-12-14T07:42:23;70.82;;;23.02;;
2860;SDS011;1438;50.922;6.704;2023-12-14T07:44:49;64.70;;;22.92;;
2860;SDS011;1438;50.922;6.704;2023-12-14T07:47:15;67.78;;;24.98;;
2860;SDS011;1438;50.922;6.704;2023-12-14T07:49:41;66.22;;;24.10;;
2860;SDS011;1438;50.922;6.704;2023-12-14T07:52:07;70.25;;;23.67;;
2860;SDS011;1438;50.922;6.704;2023-12-14T07:54:34;68.90;;;25.23;;
2860;SDS011;1438;50.922;6.704;2023-12-14T07:57:00;69.57;;;24.45;;
2860;SDS011;1438;50.922;6.704;2023-12-14T07:59:26;57.10;;;22.00;;
2860;SDS011;1438;50.922;6.704;2023-12-14T08:01:52;55.23;;;19.70;;
2860;SDS011;1438;50.922;6.704;2023-12-14T08:04:18;54.30;;;19.70;;
2860;SDS011;1438;50.922;6.704;2023-12-14T08:06:44;59.77;;;19.27;;
2860;SDS011;1438;50.922;6.704;2023-12-14T08:09:10;54.90;;;20.83;;
2860;SDS011;1438;50.922;6.704;2023-12-14T08:11:36;63.13;;;22.67;;
2860;SDS011;1438;50.922;6.704;2023-12-14T08:14:02;53.10;;;19.03;;
2860;SDS011;1438;50.922;6.704;2023-12-14T08:16:28;58.00;;;20.48;;
2860;SDS011;1438;50.922;6.704;2023-12-14T08:18:54;45.45;;;17.33;;
2860;SDS011;1438;50.922;6.704;2023-12-14T08:21:20;56.77;;;21.50;;
2860;SDS011;1438;50.922;6.704;2023-12-14T08:23:46;51.38;;;20.67;;
2860;SDS011;1438;50.922;6.704;2023-12-14T08:26:12;64.73;;;21.67;;
2860;SDS011;1438;50.922;6.704;2023-12-14T08:28:41;63.70;;;23.77;;
2860;SDS011;1438;50.922;6.704;2023-12-14T08:31:07;56.70;;;21.40;;
2860;SDS011;1438;50.922;6.704;2023-12-14T08:33:34;55.78;;;19.85;;
2860;SDS011;1438;50.922;6.704;2023-12-14T08:36:01;61.00;;;21.88;;
2860;SDS011;1438;50.922;6.704;2023-12-14T08:38:27;55.97;;;20.77;;
2860;SDS011;1438;50.922;6.704;2023-12-14T08:40:53;63.43;;;23.00;;
2860;SDS011;1438;50.922;6.704;2023-12-14T08:43:19;65.17;;;22.30;;
2860;SDS011;1438;50.922;6.704;2023-12-14T08:45:45;65.23;;;22.07;;
2860;SDS011;1438;50.922;6.704;2023-12-14T08:48:12;65.22;;;23.02;;
2860;SDS011;1438;50.922;6.704;2023-12-14T08:50:38;67.00;;;24.27;;
2860;SDS011;1438;50.922;6.704;2023-12-14T08:53:04;80.20;;;25.53;;
2860;SDS011;1438;50.922;6.704;2023-12-14T08:55:30;62.72;;;22.63;;
2860;SDS011;1438;50.922;6.704;2023-12-14T08:57:56;59.08;;;25.02;;
2860;SDS011;1438;50.922;6.704;2023-12-14T09:00:23;64.47;;;22.02;;
2860;SDS011;1438;50.922;6.704;2023-12-14T09:02:49;65.78;;;23.45;;
2860;SDS011;1438;50.922;6.704;2023-12-14T09:05:15;59.93;;;23.37;;
2860;SDS011;1438;50.922;6.704;2023-12-14T09:07:44;68.20;;;23.27;;
2860;SDS011;1438;50.922;6.704;2023-12-14T09:10:09;62.67;;;23.27;;
2860;SDS011;1438;50.922;6.704;2023-12-14T09:12:35;43.95;;;17.75;;
2860;SDS011;1438;50.922;6.704;2023-12-14T09:15:02;62.42;;;24.48;;
2860;SDS011;1438;50.922;6.704;2023-12-14T09:17:28;55.90;;;24.17;;
2860;SDS011;1438;50.922;6.704;2023-12-14T09:19:58;69.00;;;26.23;;
2860;SDS011;1438;50.922;6.704;2023-12-14T09:22:24;69.38;;;25.23;;
2860;SDS011;1438;50.922;6.704;2023-12-14T09:24:50;69.00;;;24.42;;
2860;SDS011;1438;50.922;6.704;2023-12-14T09:27:16;64.83;;;24.30;;
2860;SDS011;1438;50.922;6.704;2023-12-14T09:29:42;84.13;;;26.90;;
2860;SDS011;1438;50.922;6.704;2023-12-14T09:32:08;59.28;;;23.88;;
2860;SDS011;1438;50.922;6.704;2023-12-14T09:34:35;60.70;;;23.80;;
2860;SDS011;1438;50.922;6.704;2023-12-14T09:37:01;64.53;;;21.42;;
2860;SDS011;1438;50.922;6.704;2023-12-14T09:39:27;57.42;;;24.85;;
2860;SDS011;1438;50.922;6.704;2023-12-14T09:42:01;64.47;;;26.00;;
2860;SDS011;1438;50.922;6.704;2023-12-14T09:44:29;52.95;;;21.13;;
2860;SDS011;1438;50.922;6.704;2023-12-14T09:46:55;54.90;;;23.17;;
2860;SDS011;1438;50.922;6.704;2023-12-14T09:49:21;53.47;;;21.85;;
2860;SDS011;1438;50.922;6.704;2023-12-14T09:51:49;58.28;;;22.08;;
2860;SDS011;1438;50.922;6.704;2023-12-14T09:54:15;58.03;;;22.10;;
2860;SDS011;1438;50.922;6.704;2023-12-14T09:56:45;54.45;;;21.42;;
2860;SDS011;1438;50.922;6.704;2023-12-14T09:59:12;58.20;;;24.20;;
2860;SDS011;1438;50.922;6.704;2023-12-14T10:01:38;62.25;;;23.77;;
2860;SDS011;1438;50.922;6.704;2023-12-14T10:04:11;59.90;;;24.07;;
2860;SDS011;1438;50.922;6.704;2023-12-14T10:06:40;62.25;;;23.02;;
2860;SDS011;1438;50.922;6.704;2023-12-14T10:09:07;59.75;;;25.00;;
2860;SDS011;1438;50.922;6.704;2023-12-14T10:11:42;61.60;;;25.50;;
2860;SDS011;1438;50.922;6.704;2023-12-14T10:14:21;57.92;;;24.23;;
2860;SDS011;1438;50.922;6.704;2023-12-14T10:16:50;65.05;;;24.65;;
2860;SDS011;1438;50.922;6.704;2023-12-14T10:19:16;57.25;;;23.58;;
2860;SDS011;1438;50.922;6.704;2023-12-14T10:21:43;62.25;;;24.77;;
2860;SDS011;1438;50.922;6.704;2023-12-14T10:24:09;63.20;;;28.38;;
2860;SDS011;1438;50.922;6.704;2023-12-14T10:26:35;65.28;;;25.25;;
2860;SDS011;1438;50.922;6.704;2023-12-14T10:29:01;56.88;;;24.27;;
2860;SDS011;1438;50.922;6.704;2023-12-14T10:31:29;59.80;;;25.90;;
2860;SDS011;1438;50.922;6.704;2023-12-14T10:33:55;54.05;;;21.60;;
2860;SDS011;1438;50.922;6.704;2023-12-14T10:36:22;53.57;;;22.00;;
2860;SDS011;1438;50.922;6.704;2023-12-14T10:38:52;53.72;;;21.95;;
2860;SDS011;1438;50.922;6.704;2023-12-14T10:41:18;60.35;;;24.10;;
2860;SDS011;1438;50.922;6.704;2023-12-14T10:43:47;48.45;;;20.85;;
2860;SDS011;1438;50.922;6.704;2023-12-14T10:46:15;44.92;;;20.27;;
2860;SDS011;1438;50.922;6.704;2023-12-14T10:48:41;50.03;;;23.10;;
2860;SDS011;1438;50.922;6.704;2023-12-14T10:51:09;46.85;;;20.83;;
2860;SDS011;1438;50.922;6.704;2023-12-14T10:53:36;47.60;;;21.83;;
2860;SDS011;1438;50.922;6.704;2023-12-14T10:56:04;46.78;;;22.60;;
2860;SDS011;1438;50.922;6.704;2023-12-14T10:58:48;45.13;;;19.65;;
2860;SDS011;1438;50.922;6.704;2023-12-14T11:01:15;47.78;;;21.17;;
2860;SDS011;1438;50.922;6.704;2023-12-14T11:03:42;50.90;;;20.08;;
2860;SDS011;1438;50.922;6.704;2023-12-14T11:08:53;51.30;;;21.20;;
2860;SDS011;1438;50.922;6.704;2023-12-14T11:11:22;39.40;;;18.85;;
2860;SDS011;1438;50.922;6.704;2023-12-14T11:13:50;41.53;;;20.10;;
2860;SDS011;1438;50.922;6.704;2023-12-14T11:16:17;45.47;;;20.83;;
2860;SDS011;1438;50.922;6.704;2023-12-14T11:18:45;44.00;;;19.90;;
2860;SDS011;1438;50.922;6.704;2023-12-14T11:21:11;46.17;;;20.67;;
2860;SDS011;1438;50.922;6.704;2023-12-14T11:23:44;48.85;;;23.52;;
2860;SDS011;1438;50.922;6.704;2023-12-14T11:26:10;45.00;;;20.23;;
2860;SDS011;1438;50.922;6.704;2023-12-14T11:28:39;45.13;;;19.38;;
2860;SDS011;1438;50.922;6.704;2023-12-14T11:31:09;51.25;;;23.10;;
2860;SDS011;1438;50.922;6.704;2023-12-14T11:33:35;48.60;;;21.85;;
2860;SDS011;1438;50.922;6.704;2023-12-14T11:36:02;47.80;;;19.17;;
2860;SDS011;1438;50.922;6.704;2023-12-14T11:38:28;57.08;;;22.52;;
2860;SDS011;1438;50.922;6.704;2023-12-14T11:40:55;55.30;;;24.25;;
2860;SDS011;1438;50.922;6.704;2023-12-14T11:43:21;52.25;;;23.00;;
2860;SDS011;1438;50.922;6.704;2023-12-14T11:45:48;49.85;;;21.50;;
2860;SDS011;1438;50.922;6.704;2023-12-14T11:48:15;46.63;;;19.58;;
2860;SDS011;1438;50.922;6.704;2023-12-14T11:50:41;46.65;;;20.80;;
2860;SDS011;1438;50.922;6.704;2023-12-14T11:53:08;46.55;;;21.35;;
2860;SDS011;1438;50.922;6.704;2023-12-14T11:55:35;44.63;;;21.70;;
2860;SDS011;1438;50.922;6.704;2023-12-14T11:58:02;40.25;;;20.05;;
2860;SDS011;1438;50.922;6.704;2023-12-14T12:00:29;47.75;;;22.50;;
2860;SDS011;1438;50.922;6.704;2023-12-14T12:05:37;43.55;;;22.33;;
2860;SDS011;1438;50.922;6.704;2023-12-14T12:08:03;45.03;;;20.67;;
2860;SDS011;1438;50.922;6.704;2023-12-14T12:10:29;43.30;;;20.52;;
2860;SDS011;1438;50.922;6.704;2023-12-14T12:13:14;46.72;;;21.98;;
2860;SDS011;1438;50.922;6.704;2023-12-14T12:15:40;43.95;;;19.77;;
2860;SDS011;1438;50.922;6.704;2023-12-14T12:18:07;39.60;;;19.50;;
2860;SDS011;1438;50.922;6.704;2023-12-14T12:20:34;44.20;;;20.40;;
2860;SDS011;1438;50.922;6.704;2023-12-14T12:23:00;44.20;;;20.98;;
2860;SDS011;1438;50.922;6.704;2023-12-14T12:25:26;39.80;;;19.58;;
2860;SDS011;1438;50.922;6.704;2023-12-14T12:27:53;37.13;;;19.38;;
2860;SDS011;1438;50.922;6.704;2023-12-14T12:30:20;36.55;;;18.73;;
2860;SDS011;1438;50.922;6.704;2023-12-14T12:32:46;36.70;;;19.17;;
2860;SDS011;1438;50.922;6.704;2023-12-14T12:35:12;31.60;;;15.70;;
2860;SDS011;1438;50.922;6.704;2023-12-14T12:37:38;34.45;;;17.08;;
2860;SDS011;1438;50.922;6.704;2023-12-14T12:40:05;34.70;;;17.70;;
2860;SDS011;1438;50.922;6.704;2023-12-14T12:42:32;36.97;;;17.42;;
2860;SDS011;1438;50.922;6.704;2023-12-14T12:44:58;31.63;;;17.97;;
2860;SDS011;1438;50.922;6.704;2023-12-14T12:47:24;34.33;;;19.23;;
2860;SDS011;1438;50.922;6.704;2023-12-14T12:49:50;30.67;;;17.33;;
2860;SDS011;1438;50.922;6.704;2023-12-14T12:52:16;32.03;;;16.02;;
2860;SDS011;1438;50.922;6.704;2023-12-14T12:54:42;29.03;;;15.47;;
2860;SDS011;1438;50.922;6.704;2023-12-14T12:57:08;29.87;;;15.80;;
2860;SDS011;1438;50.922;6.704;2023-12-14T12:59:34;29.00;;;16.97;;
2860;SDS011;1438;50.922;6.704;2023-12-14T13:02:00;33.67;;;16.23;;
2860;SDS011;1438;50.922;6.704;2023-12-14T13:04:27;27.08;;;14.15;;
2860;SDS011;1438;50.922;6.704;2023-12-14T13:06:55;27.42;;;14.95;;
2860;SDS011;1438;50.922;6.704;2023-12-14T13:09:21;29.23;;;15.07;;
2860;SDS011;1438;50.922;6.704;2023-12-14T13:11:47;24.23;;;13.30;;
2860;SDS011;1438;50.922;6.704;2023-12-14T13:14:15;25.83;;;14.25;;
2860;SDS011;1438;50.922;6.704;2023-12-14T13:16:41;26.48;;;14.27;;
2860;SDS011;1438;50.922;6.704;2023-12-14T13:19:08;23.85;;;13.10;;
2860;SDS011;1438;50.922;6.704;2023-12-14T13:21:34;27.77;;;13.35;;
2860;SDS011;1438;50.922;6.704;2023-12-14T13:24:00;23.05;;;12.10;;
2860;SDS011;1438;50.922;6.704;2023-12-14T13:26:27;26.33;;;13.65;;
2860;SDS011;1438;50.922;6.704;2023-12-14T13:28:53;22.20;;;12.27;;
2860;SDS011;1438;50.922;6.704;2023-12-14T13:31:19;24.58;;;13.05;;
2860;SDS011;1438;50.922;6.704;2023-12-14T13:33:48;22.92;;;13.18;;
2860;SDS011;1438;50.922;6.704;2023-12-14T13:36:18;25.88;;;13.55;;
2860;SDS011;1438;50.922;6.704;2023-12-14T13:38:44;24.58;;;13.70;;
2860;SDS011;1438;50.922;6.704;2023-12-14T13:41:10;19.70;;;11.20;;
2860;SDS011;1438;50.922;6.704;2023-12-14T13:43:36;22.27;;;12.90;;
2860;SDS011;1438;50.922;6.704;2023-12-14T13:46:03;22.23;;;12.95;;
2860;SDS011;1438;50.922;6.704;2023-12-14T13:48:29;23.83;;;13.38;;
2860;SDS011;1438;50.922;6.704;2023-12-14T13:50:55;22.92;;;13.20;;
2860;SDS011;1438;50.922;6.704;2023-12-14T13:53:22;21.25;;;13.10;;
2860;SDS011;1438;50.922;6.704;2023-12-14T13:55:48;20.67;;;12.57;;
2860;SDS011;1438;50.922;6.704;2023-12-14T13:58:14;25.10;;;13.90;;
2860;SDS011;1438;50.922;6.704;2023-12-14T14:00:41;22.25;;;12.75;;
2860;SDS011;1438;50.922;6.704;2023-12-14T14:03:07;23.00;;;12.75;;
2860;SDS011;1438;50.922;6.704;2023-12-14T14:05:33;23.15;;;11.80;;
2860;SDS011;1438;50.922;6.704;2023-12-14T14:07:59;19.65;;;12.15;;
2860;SDS011;1438;50.922;6.704;2023-12-14T14:10:25;22.60;;;12.98;;
2860;SDS011;1438;50.922;6.704;2023-12-14T14:12:51;25.40;;;11.52;;
2860;SDS011;1438;50.922;6.704;2023-12-14T14:15:18;20.83;;;11.90;;
2860;SDS011;1438;50.922;6.704;2023-12-14T14:17:45;24.10;;;12.80;;
2860;SDS011;1438;50.922;6.704;2023-12-14T14:20:13;23.65;;;13.43;;
2860;SDS011;1438;50.922;6.704;2023-12-14T14:22:39;21.88;;;12.23;;
2860;SDS011;1438;50.922;6.704;2023-12-14T14:25:05;22.98;;;11.68;;
2860;SDS011;1438;50.922;6.704;2023-12-14T14:27:34;26.75;;;13.85;;
2860;SDS011;1438;50.922;6.704;2023-12-14T14:30:00;28.05;;;13.75;;
2860;SDS011;1438;50.922;6.704;2023-12-14T14:32:26;26.00;;;14.10;;
2860;SDS011;1438;50.922;6.704;2023-12-14T14:34:52;26.40;;;13.55;;
2860;SDS011;1438;50.922;6.704;2023-12-14T14:37:20;27.90;;;13.20;;
2860;SDS011;1438;50.922;6.704;2023-12-14T14:39:46;27.00;;;16.13;;
2860;SDS011;1438;50.922;6.704;2023-12-14T14:42:13;24.75;;;14.38;;
2860;SDS011;1438;50.922;6.704;2023-12-14T14:44:39;24.55;;;14.35;;
2860;SDS011;1438;50.922;6.704;2023-12-14T14:47:05;29.15;;;15.25;;
2860;SDS011;1438;50.922;6.704;2023-12-14T14:49:31;24.85;;;14.98;;